Time;durP1;ratioP1;P1;durP2;ratioP2;P2;SDS_P1;SDS_P2;PMS_P1;PMS_P2;Temp;Humidity;BMP_temperature;BMP_pressure;BME280_temperature;BME280_humidity;BME280_pressure;Samples;Min_cycle;Max_cycle;Signal;HPM_P1;HPM_P2
2022/09/06 00:01:56;;;;;;;4.40;1.70;;;;;;;9.37;61.68;101602.89;84209;1340;22606;-73
2022/09/06 00:04:05;;;;;;;6.90;1.80;;;;;;;9.30;61.85;101600.21;84214;1338;25536;-73
2022/09/06 00:06:16;;;;;;;4.00;1.50;;;;;;;9.24;62.06;101599.94;84184;1339;22606;-73
2022/09/06 00:08:25;;;;;;;2.20;1.20;;;;;;;9.16;62.38;101594.98;84201;1339;22591;-74
2022/09/06 00:10:34;;;;;;;3.50;1.20;;;;;;;9.12;62.45;101593.64;84218;1334;22608;-73
2022/09/06 00:12:43;;;;;;;2.70;1.30;;;;;;;9.10;62.62;101592.44;84148;1338;24292;-74
2022/09/06 00:14:52;;;;;;;1.40;1.10;;;;;;;9.10;62.57;101596.61;84223;1338;22614;-74
2022/09/06 00:17:01;;;;;;;3.90;1.20;;;;;;;9.11;62.83;101593.82;84209;1339;22968;-73
2022/09/06 00:19:11;;;;;;;4.10;1.30;;;;;;;9.14;62.57;101594.84;84194;1339;22688;-74
2022/09/06 00:21:21;;;;;;;1.70;1.40;;;;;;;9.15;62.50;101597.41;84093;1341;22861;-73
2022/09/06 00:23:30;;;;;;;3.50;1.30;;;;;;;9.15;62.65;101597.25;84312;1337;22582;-73
2022/09/06 00:25:40;;;;;;;2.70;1.70;;;;;;;9.17;62.62;101594.97;84323;1337;22860;-73
2022/09/06 00:27:49;;;;;;;3.70;1.60;;;;;;;9.20;62.34;101595.09;84290;1339;22625;-72
2022/09/06 00:29:58;;;;;;;2.60;1.60;;;;;;;9.20;62.41;101597.17;84297;1336;23043;-73
2022/09/06 00:32:08;;;;;;;2.60;1.40;;;;;;;9.22;62.38;101595.09;84207;1338;24021;-72
2022/09/06 00:34:15;;;;;;;;;;;;;;;9.21;62.40;101593.35;84227;1339;22583;-72
2022/09/06 00:36:25;;;;;;;6.80;1.70;;;;;;;9.18;62.41;101596.52;84310;1339;22630;-74
2022/09/06 00:38:34;;;;;;;3.10;1.50;;;;;;;9.16;62.41;101599.85;84291;1338;22561;-71
2022/09/06 00:40:43;;;;;;;3.30;1.40;;;;;;;9.14;62.39;101597.79;84189;1339;22628;-74
2022/09/06 00:42:52;;;;;;;1.80;1.30;;;;;;;9.13;62.21;101596.07;84260;1333;22772;-74
2022/09/06 00:45:01;;;;;;;2.80;1.70;;;;;;;9.16;61.94;101598.29;84283;1337;22676;-74
2022/09/06 00:47:10;;;;;;;1.70;0.90;;;;;;;9.20;61.85;101595.44;84142;1336;22692;-75
2022/09/06 00:49:23;;;;;;;1.10;0.90;;;;;;;9.26;61.62;101593.81;84223;1337;23987;-74
2022/09/06 00:51:32;;;;;;;2.10;1.20;;;;;;;9.32;61.38;101588.86;84218;1337;24356;-74
2022/09/06 00:53:41;;;;;;;4.20;1.40;;;;;;;9.38;61.07;101589.98;84278;1337;24285;-74
2022/09/06 00:55:51;;;;;;;3.90;1.60;;;;;;;9.42;60.87;101590.46;84181;1339;22600;-74
2022/09/06 00:58:01;;;;;;;3.90;1.00;;;;;;;9.48;60.60;101594.21;84178;1339;24145;-74
2022/09/06 01:00:11;;;;;;;1.10;1.00;;;;;;;9.52;60.47;101591.38;84264;1338;22605;-74
2022/09/06 01:02:20;;;;;;;1.60;1.00;;;;;;;9.54;60.27;101591.34;84286;1338;25564;-73
2022/09/06 01:04:29;;;;;;;2.10;0.80;;;;;;;9.55;60.19;101592.20;84278;1339;25446;-75
2022/09/06 01:06:48;;;;;;;4.20;1.20;;;;;;;9.57;60.07;101587.30;84323;1339;22651;-73
2022/09/06 01:09:05;;;;;;;1.10;0.90;;;;;;;9.58;60.10;101588.33;84285;1337;24219;-73
2022/09/06 01:11:39;;;;;;;1.80;1.00;;;;;;;9.58;59.99;101588.66;84317;1338;22612;-73
2022/09/06 01:13:56;;;;;;;3.20;1.20;;;;;;;9.56;60.07;101588.35;84275;1338;24229;-72
2022/09/06 01:16:12;;;;;;;2.10;0.90;;;;;;;9.53;59.99;101585.24;84251;1338;22597;-73
2022/09/06 01:18:46;;;;;;;1.40;0.90;;;;;;;9.51;60.15;101584.75;84253;1338;24434;-75
2022/09/06 01:21:14;;;;;;;1.10;0.80;;;;;;;9.48;60.21;101587.94;84198;1338;25282;-74
2022/09/06 01:24:08;;;;;;;1.40;0.80;;;;;;;9.47;60.37;101586.74;84191;1338;22646;-74
2022/09/06 01:26:46;;;;;;;1.40;1.00;;;;;;;9.44;60.38;101583.98;84150;1338;22610;-74
2022/09/06 01:28:55;;;;;;;2.10;0.70;;;;;;;9.44;60.37;101583.11;84149;1338;26547;-73
2022/09/06 01:31:18;;;;;;;2.80;1.00;;;;;;;9.46;60.19;101582.56;84122;1339;22629;-73
2022/09/06 01:33:30;;;;;;;2.30;1.20;;;;;;;9.47;60.17;101585.52;84005;1336;22603;-74
2022/09/06 01:35:40;;;;;;;1.90;0.90;;;;;;;9.47;60.30;101583.60;84175;1338;22635;-74
2022/09/06 01:37:49;;;;;;;2.10;0.80;;;;;;;9.49;59.98;101583.73;84181;1338;22732;-73
2022/09/06 01:39:58;;;;;;;2.80;1.40;;;;;;;9.53;59.85;101581.42;84173;1339;22595;-74
2022/09/06 01:42:09;;;;;;;1.80;1.00;;;;;;;9.55;59.82;101582.25;84210;1339;22621;-73
2022/09/06 01:44:18;;;;;;;3.30;1.10;;;;;;;9.56;59.79;101583.13;84016;1340;22607;-74
2022/09/06 01:46:33;;;;;;;2.40;1.00;;;;;;;9.54;59.92;101586.98;84189;1338;22623;-72
2022/09/06 01:48:57;;;;;;;1.20;0.80;;;;;;;9.52;60.00;101586.66;83772;1335;22931;-73
2022/09/06 01:51:14;;;;;;;3.20;1.00;;;;;;;9.48;60.33;101586.02;84229;1338;22798;-73
2022/09/06 01:53:40;;;;;;;1.10;0.90;;;;;;;9.44;60.43;101586.44;84188;1338;22642;-74
2022/09/06 01:55:55;;;;;;;2.20;1.30;;;;;;;9.37;60.89;101582.69;84251;1339;24282;-72
2022/09/06 01:58:42;;;;;;;2.50;1.20;;;;;;;9.29;61.21;101585.93;84273;1337;23870;-73
2022/09/06 02:00:57;;;;;;;1.20;0.80;;;;;;;9.21;61.51;101578.89;84272;1337;22670;-74
2022/09/06 02:03:11;;;;;;;2.50;0.90;;;;;;;9.18;61.85;101582.94;84247;1337;22603;-73
2022/09/06 02:05:24;;;;;;;1.60;1.00;;;;;;;9.13;62.20;101582.30;84281;1337;22634;-72
2022/09/06 02:07:35;;;;;;;1.60;1.10;;;;;;;9.07;62.57;101583.44;84269;1337;22913;-72
2022/09/06 02:09:44;;;;;;;1.50;1.20;;;;;;;8.98;63.04;101586.67;84254;1338;22796;-74
2022/09/06 02:11:56;;;;;;;1.20;1.10;;;;;;;8.89;63.35;101585.38;84170;1337;24371;-74
2022/09/06 02:14:07;;;;;;;2.00;1.00;;;;;;;8.79;63.77;101582.89;84177;1339;23976;-75
2022/09/06 02:16:18;;;;;;;1.20;1.00;;;;;;;8.71;64.33;101583.86;84214;1339;24356;-73
2022/09/06 02:18:29;;;;;;;1.60;1.30;;;;;;;8.63;64.57;101585.84;84178;1339;25455;-74
2022/09/06 02:20:41;;;;;;;2.00;1.40;;;;;;;8.57;64.80;101586.09;84181;1339;22592;-74
2022/09/06 02:22:50;;;;;;;1.60;0.90;;;;;;;8.50;65.28;101585.45;84148;1339;22890;-75
2022/09/06 02:25:00;;;;;;;3.20;1.20;;;;;;;8.42;65.34;101587.27;84265;1339;22599;-74
2022/09/06 02:27:09;;;;;;;3.00;1.00;;;;;;;8.35;65.82;101587.49;84297;1338;22623;-74
2022/09/06 02:29:18;;;;;;;1.60;1.10;;;;;;;8.28;65.90;101588.08;84223;1339;25334;-75
2022/09/06 02:31:31;;;;;;;3.60;1.00;;;;;;;8.21;66.50;101589.00;84245;1339;22607;-75
2022/09/06 02:33:40;;;;;;;3.70;1.80;;;;;;;8.15;66.44;101590.45;84292;1338;22678;-73
2022/09/06 02:35:50;;;;;;;1.60;1.10;;;;;;;8.10;66.68;101595.35;84239;1338;22610;-74
2022/09/06 02:38:00;;;;;;;3.00;1.10;;;;;;;8.06;67.02;101599.04;84178;1339;22597;-75
2022/09/06 02:40:12;;;;;;;2.20;1.10;;;;;;;8.01;67.31;101597.34;84295;1338;22784;-74
2022/09/06 02:42:21;;;;;;;1.10;0.80;;;;;;;7.97;67.48;101601.71;84240;1338;22605;-74
2022/09/06 02:44:31;;;;;;;2.20;1.10;;;;;;;7.93;67.67;101600.17;84194;1337;25954;-71
2022/09/06 02:46:40;;;;;;;1.50;1.40;;;;;;;7.89;67.99;101598.64;84344;1333;22678;-74
2022/09/06 02:48:49;;;;;;;3.50;1.60;;;;;;;7.87;68.24;101597.45;84268;1339;22617;-74
2022/09/06 02:51:01;;;;;;;1.60;1.10;;;;;;;7.85;68.31;101600.23;84192;1334;22628;-74
2022/09/06 02:53:11;;;;;;;3.40;1.10;;;;;;;7.83;68.36;101597.99;84088;1338;25317;-73
2022/09/06 02:55:20;;;;;;;1.20;0.80;;;;;;;7.80;68.69;101599.74;83991;1341;22611;-74
2022/09/06 02:57:29;;;;;;;2.30;1.20;;;;;;;7.77;68.71;101597.69;84202;1339;22611;-73
2022/09/06 02:59:38;;;;;;;1.50;0.90;;;;;;;7.74;68.88;101596.66;84162;1338;22599;-73
2022/09/06 03:01:49;;;;;;;1.50;1.10;;;;;;;7.71;69.06;101594.25;84260;1333;24273;-74
2022/09/06 03:03:58;;;;;;;1.90;1.10;;;;;;;7.69;69.11;101594.96;84245;1338;23120;-72
2022/09/06 03:06:07;;;;;;;2.40;1.20;;;;;;;7.66;69.30;101590.81;84279;1338;22602;-74
2022/09/06 03:08:16;;;;;;;1.10;0.90;;;;;;;7.65;69.37;101587.16;84142;1339;22599;-72
2022/09/06 03:10:25;;;;;;;1.80;1.20;;;;;;;7.62;69.75;101587.02;84213;1339;25458;-73
2022/09/06 03:12:34;;;;;;;2.00;1.00;;;;;;;7.61;69.76;101582.86;84286;1337;22632;-73
2022/09/06 03:14:43;;;;;;;2.00;0.90;;;;;;;7.59;69.83;101579.56;84211;1338;23926;-74
2022/09/06 03:16:52;;;;;;;3.60;1.30;;;;;;;7.58;70.09;101581.48;84223;1339;24273;-74
2022/09/06 03:19:01;;;;;;;1.90;1.40;;;;;;;7.56;70.03;101579.41;84198;1339;23182;-74
2022/09/06 03:21:10;;;;;;;4.10;1.40;;;;;;;7.56;70.13;101581.50;84322;1337;22602;-73
2022/09/06 03:23:19;;;;;;;2.80;1.20;;;;;;;7.57;70.28;101584.62;84317;1338;22744;-75
2022/09/06 03:25:28;;;;;;;1.90;0.90;;;;;;;7.54;70.32;101586.38;84298;1338;25309;-74
2022/09/06 03:27:37;;;;;;;3.70;1.30;;;;;;;7.52;70.48;101585.85;84326;1336;25279;-74
2022/09/06 03:29:46;;;;;;;1.70;1.30;;;;;;;7.50;70.60;101585.17;84295;1334;22677;-75
2022/09/06 03:31:55;;;;;;;1.80;1.10;;;;;;;7.51;70.60;101585.88;84183;1336;24979;-74
2022/09/06 03:34:04;;;;;;;2.30;1.30;;;;;;;7.52;70.69;101580.98;84151;1338;22627;-74
2022/09/06 03:36:14;;;;;;;1.30;1.00;;;;;;;7.56;70.77;101584.80;84204;1338;22599;-73
2022/09/06 03:38:23;;;;;;;2.30;1.20;;;;;;;7.57;70.89;101587.73;84113;1338;22599;-75
2022/09/06 03:40:32;;;;;;;3.90;1.40;;;;;;;7.58;70.93;101588.08;84099;1338;24144;-74
2022/09/06 03:42:41;;;;;;;4.10;1.20;;;;;;;7.58;71.12;101589.30;84149;1338;22606;-75
2022/09/06 03:44:50;;;;;;;2.50;1.60;;;;;;;7.60;71.42;101589.81;84185;1338;22613;-74
2022/09/06 03:46:59;;;;;;;6.40;1.80;;;;;;;7.63;70.88;101591.70;84197;1336;22601;-74
2022/09/06 03:49:09;;;;;;;1.50;1.20;;;;;;;7.66;71.39;101588.90;84186;1341;23938;-74
2022/09/06 03:51:18;;;;;;;3.00;1.80;;;;;;;7.67;71.52;101590.45;84225;1338;22843;-74
2022/09/06 03:53:28;;;;;;;2.50;1.40;;;;;;;7.69;71.60;101584.89;84192;1337;25307;-74
2022/09/06 03:55:37;;;;;;;1.40;1.30;;;;;;;7.70;71.66;101582.96;84190;1338;22595;-75
2022/09/06 03:57:46;;;;;;;1.60;1.30;;;;;;;7.76;71.51;101577.19;84231;1339;22892;-74
2022/09/06 03:59:55;;;;;;;5.00;1.50;;;;;;;7.82;71.75;101578.20;84212;1339;22662;-74
2022/09/06 04:02:05;;;;;;;4.30;1.20;;;;;;;7.85;71.67;101580.09;84232;1341;25659;-74
2022/09/06 04:04:14;;;;;;;4.10;1.60;;;;;;;7.86;71.74;101581.45;84244;1338;22921;-74
2022/09/06 04:06:22;;;;;;;2.40;1.30;;;;;;;7.86;71.67;101577.63;84229;1338;22603;-74
2022/09/06 04:08:31;;;;;;;4.40;1.60;;;;;;;7.88;71.62;101577.98;84204;1341;24316;-74
2022/09/06 04:10:40;;;;;;;2.70;1.70;;;;;;;7.89;71.74;101576.25;84196;1337;23108;-75
2022/09/06 04:12:49;;;;;;;6.90;1.50;;;;;;;7.91;71.55;101573.61;84199;1336;22643;-73
2022/09/06 04:14:58;;;;;;;2.40;1.40;;;;;;;7.92;71.63;101574.47;84162;1339;22611;-73
2022/09/06 04:17:07;;;;;;;3.40;1.40;;;;;;;7.92;71.63;101574.13;84211;1340;22614;-73
2022/09/06 04:19:16;;;;;;;2.00;1.70;;;;;;;7.93;71.60;101572.73;84188;1338;22612;-74
2022/09/06 04:21:25;;;;;;;2.90;1.80;;;;;;;7.96;71.45;101568.70;84162;1339;22595;-74
2022/09/06 04:23:34;;;;;;;5.30;1.70;;;;;;;8.00;71.45;101567.98;84214;1338;22596;-75
2022/09/06 04:25:47;;;;;;;1.80;1.50;;;;;;;8.07;71.24;101573.64;84235;1338;22597;-75
2022/09/06 04:27:56;;;;;;;7.40;2.40;;;;;;;8.17;71.32;101570.79;84208;1338;22609;-75
2022/09/06 04:30:09;;;;;;;4.70;1.80;;;;;;;8.29;70.99;101571.02;84143;1338;22627;-74
2022/09/06 04:32:18;;;;;;;5.10;2.30;;;;;;;8.41;70.61;101571.64;84203;1338;22624;-74
2022/09/06 04:34:27;;;;;;;2.90;2.00;;;;;;;8.52;70.31;101570.66;84101;1338;22626;-73
2022/09/06 04:36:37;;;;;;;5.80;2.50;;;;;;;8.61;70.00;101568.48;84148;1339;22800;-73
2022/09/06 04:38:46;;;;;;;4.40;1.90;;;;;;;8.71;70.13;101571.67;84141;1338;22623;-73
2022/09/06 04:40:55;;;;;;;1.70;1.20;;;;;;;8.82;70.10;101576.60;84107;1339;22632;-75
2022/09/06 04:43:04;;;;;;;5.00;2.10;;;;;;;8.90;69.98;101577.02;83892;1341;22574;-74
2022/09/06 04:45:16;;;;;;;5.00;2.30;;;;;;;8.96;69.98;101581.46;84182;1338;22635;-76
2022/09/06 04:47:25;;;;;;;4.10;2.00;;;;;;;9.00;70.05;101580.73;84236;1338;22637;-73
2022/09/06 04:49:34;;;;;;;3.60;1.70;;;;;;;9.02;70.06;101580.36;84210;1338;23820;-76
2022/09/06 04:51:44;;;;;;;7.00;1.50;;;;;;;9.05;69.95;101581.88;84218;1339;27314;-75
2022/09/06 04:53:53;;;;;;;4.20;2.40;;;;;;;9.11;70.01;101579.91;84256;1338;22809;-72
2022/09/06 04:56:02;;;;;;;4.90;1.80;;;;;;;9.18;70.15;101581.20;84207;1336;22747;-73
2022/09/06 04:58:11;;;;;;;7.20;2.10;;;;;;;9.28;70.30;101577.77;84220;1338;24695;-72
2022/09/06 05:00:21;;;;;;;5.00;1.90;;;;;;;9.40;70.38;101577.60;84196;1338;25271;-72
2022/09/06 05:02:29;;;;;;;6.30;1.50;;;;;;;9.52;69.88;101573.77;84259;1334;23065;-73
2022/09/06 05:04:39;;;;;;;5.80;2.40;;;;;;;9.67;69.29;101572.68;84203;1334;22548;-73
2022/09/06 05:06:49;;;;;;;2.50;1.60;;;;;;;9.81;69.18;101575.42;84190;1334;22736;-72
2022/09/06 05:08:58;;;;;;;5.30;1.90;;;;;;;9.94;68.46;101574.35;84195;1338;25307;-72
2022/09/06 05:11:07;;;;;;;10.80;2.10;;;;;;;10.08;67.90;101576.73;84193;1338;22602;-73
2022/09/06 05:13:16;;;;;;;4.40;2.60;;;;;;;10.20;67.51;101577.77;84155;1338;22695;-73
2022/09/06 05:15:25;;;;;;;3.80;1.70;;;;;;;10.32;67.16;101575.15;84178;1339;25272;-72
2022/09/06 05:17:35;;;;;;;5.20;1.90;;;;;;;10.42;66.55;101574.10;84149;1338;22621;-72
2022/09/06 05:19:44;;;;;;;5.90;2.10;;;;;;;10.52;66.28;101580.52;84126;1329;22918;-71
2022/09/06 05:21:54;;;;;;;7.90;2.00;;;;;;;10.69;66.93;101574.64;84195;1338;22614;-73
2022/09/06 05:24:03;;;;;;;9.70;2.00;;;;;;;11.41;68.45;101571.55;84268;1337;22639;-72
2022/09/06 05:26:12;;;;;;;6.60;1.90;;;;;;;12.86;67.67;101564.73;84103;1338;22661;-74
2022/09/06 05:28:21;;;;;;;8.10;3.20;;;;;;;14.38;65.01;101560.67;84190;1338;22665;-75
2022/09/06 05:30:30;;;;;;;6.60;2.10;;;;;;;15.77;60.19;101549.84;84201;1338;22603;-75
2022/09/06 05:32:39;;;;;;;6.70;1.90;;;;;;;16.93;56.04;101544.33;84164;1336;22625;-71
2022/09/06 05:34:48;;;;;;;8.50;2.60;;;;;;;17.99;52.45;101547.37;84267;1339;25320;-72
2022/09/06 05:36:57;;;;;;;10.90;2.00;;;;;;;18.93;50.10;101545.33;84324;1337;22609;-73
2022/09/06 05:39:06;;;;;;;5.30;1.90;;;;;;;19.90;46.34;101543.09;84310;1336;22767;-73
2022/09/06 05:41:15;;;;;;;4.00;1.40;;;;;;;20.40;44.27;101543.48;84325;1339;22603;-72
2022/09/06 05:43:23;;;;;;;8.80;2.10;;;;;;;20.68;42.47;101544.13;84153;1340;25679;-73
2022/09/06 05:45:33;;;;;;;3.50;1.80;;;;;;;20.66;42.57;101544.20;84099;1339;26647;-74
2022/09/06 05:47:42;;;;;;;5.00;1.60;;;;;;;20.63;41.54;101548.69;84074;1338;23968;-73
2022/09/06 05:49:51;;;;;;;9.40;3.10;;;;;;;20.24;40.61;101552.08;84089;1338;22610;-72
2022/09/06 05:51:59;;;;;;;5.20;2.70;;;;;;;19.67;41.23;101554.66;84280;1333;22603;-72
2022/09/06 05:54:10;;;;;;;8.00;2.00;;;;;;;19.14;41.26;101553.90;84211;1338;22586;-73
2022/09/06 05:56:19;;;;;;;4.90;1.50;;;;;;;19.00;42.28;101549.76;84254;1333;24263;-74
2022/09/06 05:58:28;;;;;;;9.90;2.30;;;;;;;19.58;42.69;101548.81;84290;1334;22630;-74
2022/09/06 06:00:37;;;;;;;4.40;2.30;;;;;;;20.59;41.49;101544.80;84291;1335;22598;-73
2022/09/06 06:02:48;;;;;;;10.10;1.90;;;;;;;21.56;39.93;101544.02;84097;1339;22812;-72
2022/09/06 06:04:57;;;;;;;3.60;2.80;;;;;;;22.50;38.52;101539.27;84273;1338;22615;-74
2022/09/06 06:07:09;;;;;;;15.50;2.40;;;;;;;23.48;37.13;101537.08;84279;1336;25510;-73
2022/09/06 06:09:18;;;;;;;6.90;1.70;;;;;;;24.48;35.25;101538.83;84250;1333;22565;-73
2022/09/06 06:11:27;;;;;;;4.90;2.00;;;;;;;25.32;32.74;101536.08;84257;1338;22858;-72
2022/09/06 06:13:38;;;;;;;2.60;1.60;;;;;;;25.92;31.39;101536.33;84255;1330;22618;-72
2022/09/06 06:15:47;;;;;;;5.40;2.00;;;;;;;26.36;29.92;101536.68;84268;1337;22681;-71
2022/09/06 06:17:56;;;;;;;2.50;1.50;;;;;;;26.45;29.34;101533.21;84269;1338;22835;-72
2022/09/06 06:20:06;;;;;;;7.10;1.70;;;;;;;26.30;28.22;101535.77;84307;1337;22592;-70
2022/09/06 06:22:15;;;;;;;5.30;1.70;;;;;;;26.07;28.11;101539.14;84306;1338;23098;-71
2022/09/06 06:24:24;;;;;;;4.00;1.60;;;;;;;25.79;28.34;101546.46;84282;1337;22616;-75
2022/09/06 06:26:35;;;;;;;4.60;1.40;;;;;;;25.09;28.44;101539.86;84300;1337;25255;-73
2022/09/06 06:28:44;;;;;;;4.70;1.30;;;;;;;24.36;29.34;101543.35;84227;1337;22596;-71
2022/09/06 06:30:56;;;;;;;7.30;1.50;;;;;;;23.80;29.99;101550.75;84270;1338;22809;-71
2022/09/06 06:33:07;;;;;;;4.40;1.30;;;;;;;23.13;29.96;101548.72;84260;1337;22667;-73
2022/09/06 06:35:16;;;;;;;2.70;1.30;;;;;;;22.46;30.64;101549.39;84165;1334;23145;-73
2022/09/06 06:37:25;;;;;;;3.90;1.10;;;;;;;21.92;31.51;101555.53;84260;1334;22606;-73
2022/09/06 06:39:34;;;;;;;2.90;1.10;;;;;;;21.43;31.73;101553.23;84443;1340;23893;-74
2022/09/06 06:41:44;;;;;;;5.40;1.00;;;;;;;20.95;32.28;101549.19;84385;1337;23873;-74
2022/09/06 06:43:55;;;;;;;3.30;1.20;;;;;;;20.58;32.84;101548.84;84274;1334;22682;-74
2022/09/06 06:46:04;;;;;;;6.10;1.50;;;;;;;20.24;33.13;101553.33;84241;1338;22597;-73
2022/09/06 06:48:13;;;;;;;7.90;1.20;;;;;;;19.88;33.18;101555.97;84237;1337;22633;-73
2022/09/06 06:50:23;;;;;;;1.50;1.00;;;;;;;19.61;33.82;101560.35;83898;1341;22562;-71
2022/09/06 06:52:32;;;;;;;3.20;1.10;;;;;;;19.39;34.07;101559.27;84262;1337;22708;-74
2022/09/06 06:54:41;;;;;;;3.20;0.80;;;;;;;19.21;34.34;101563.29;84268;1337;23937;-73
2022/09/06 06:56:50;;;;;;;1.20;1.00;;;;;;;19.06;34.55;101561.27;84261;1337;22689;-70
2022/09/06 06:59:01;;;;;;;4.00;1.10;;;;;;;19.00;34.73;101566.52;84155;1339;24341;-71
2022/09/06 07:01:10;;;;;;;3.60;0.90;;;;;;;18.94;34.20;101567.23;84275;1338;22606;-71
2022/09/06 07:03:19;;;;;;;3.80;1.10;;;;;;;18.88;34.36;101568.23;84267;1337;23973;-70
2022/09/06 07:05:29;;;;;;;3.80;0.70;;;;;;;18.83;34.39;101566.94;84145;1339;25006;-70
2022/09/06 07:07:37;;;;;;;2.10;0.90;;;;;;;18.78;34.54;101569.51;84280;1338;24356;-70
2022/09/06 07:09:46;;;;;;;5.10;0.80;;;;;;;18.88;35.06;101573.39;84289;1336;22615;-71
2022/09/06 07:11:55;;;;;;;1.20;0.80;;;;;;;19.18;34.55;101572.65;84300;1336;22633;-70
2022/09/06 07:14:03;;;;;;;4.30;1.00;;;;;;;19.61;34.03;101575.56;84322;1336;24753;-71
2022/09/06 07:16:15;;;;;;;1.90;0.90;;;;;;;19.95;33.53;101572.20;84300;1335;22697;-72
2022/09/06 07:18:24;;;;;;;3.40;0.70;;;;;;;20.07;33.87;101570.58;84198;1337;22621;-71
2022/09/06 07:20:32;;;;;;;1.80;0.90;;;;;;;20.15;33.16;101573.54;84228;1338;22595;-71
2022/09/06 07:22:41;;;;;;;2.60;0.70;;;;;;;20.14;32.91;101571.64;84205;1338;24250;-71
2022/09/06 07:24:50;;;;;;;1.10;0.80;;;;;;;20.06;32.88;101574.19;84201;1339;25935;-69
2022/09/06 07:26:59;;;;;;;1.70;0.70;;;;;;;20.01;32.47;101572.19;84225;1338;24966;-71
2022/09/06 07:29:08;;;;;;;1.90;0.90;;;;;;;19.96;32.86;101572.31;84200;1338;24338;-71
2022/09/06 07:31:20;;;;;;;3.20;0.80;;;;;;;19.88;32.31;101575.11;84183;1338;22729;-72
2022/09/06 07:33:29;;;;;;;1.30;0.60;;;;;;;19.88;32.38;101576.14;84194;1339;22627;-73
2022/09/06 07:35:38;;;;;;;4.30;1.40;;;;;;;19.92;32.83;101575.09;84197;1338;22644;-73
2022/09/06 07:37:52;;;;;;;3.30;0.70;;;;;;;19.99;32.41;101572.85;84220;1336;22600;-72
2022/09/06 07:40:01;;;;;;;5.50;0.60;;;;;;;20.19;32.84;101565.09;84196;1338;22604;-70
2022/09/06 07:42:11;;;;;;;1.20;0.60;;;;;;;20.81;32.63;101562.80;84240;1339;22554;-72
2022/09/06 07:44:19;;;;;;;6.00;0.90;;;;;;;21.39;32.02;101558.10;84218;1336;22665;-71
2022/09/06 07:46:29;;;;;;;2.70;0.60;;;;;;;21.97;31.06;101558.36;84186;1338;22616;-71
2022/09/06 07:48:40;;;;;;;3.50;1.20;;;;;;;22.56;30.30;101555.76;84206;1336;22609;-71
2022/09/06 07:50:49;;;;;;;4.60;0.90;;;;;;;23.07;29.35;101549.91;84195;1334;22611;-70
2022/09/06 07:53:04;;;;;;;1.20;0.70;;;;;;;23.62;29.06;101553.35;84193;1338;24266;-71
2022/09/06 07:55:13;;;;;;;3.50;0.90;;;;;;;24.35;28.77;101548.08;84202;1338;25017;-71
2022/09/06 07:57:22;;;;;;;3.50;0.80;;;;;;;25.16;28.30;101549.29;84225;1338;22609;-70
2022/09/06 07:59:31;;;;;;;2.70;0.50;;;;;;;25.99;25.93;101556.95;84225;1334;22708;-70
2022/09/06 08:01:40;;;;;;;4.40;0.80;;;;;;;26.37;24.76;101556.44;84222;1337;22637;-70
2022/09/06 08:03:49;;;;;;;1.00;0.40;;;;;;;26.84;24.68;101552.65;84221;1336;22846;-71
2022/09/06 08:05:57;;;;;;;;;;;;;;;27.40;23.55;101559.39;84286;1338;22563;-72
2022/09/06 08:08:06;;;;;;;1.50;0.60;;;;;;;27.87;23.33;101556.02;84228;1338;24364;-71
2022/09/06 08:10:16;;;;;;;5.60;0.70;;;;;;;28.45;22.59;101552.15;84212;1339;23050;-72
2022/09/06 08:12:26;;;;;;;3.80;0.80;;;;;;;29.09;22.38;101549.42;84250;1338;22598;-71
2022/09/06 08:14:35;;;;;;;1.60;0.50;;;;;;;29.68;21.26;101550.08;84209;1338;24272;-71
2022/09/06 08:16:44;;;;;;;2.60;0.70;;;;;;;30.05;20.92;101550.29;84221;1338;22626;-72
2022/09/06 08:18:55;;;;;;;4.70;0.60;;;;;;;30.30;20.08;101543.25;84203;1338;22613;-70
2022/09/06 08:21:12;;;;;;;2.80;1.00;;;;;;;30.56;20.52;101544.30;84206;1338;23870;-71
2022/09/06 08:23:20;;;;;;;3.70;1.20;;;;;;;30.97;19.77;101534.23;84230;1338;22657;-72
2022/09/06 08:25:30;;;;;;;1.70;0.70;;;;;;;31.24;18.60;101541.67;84212;1338;22777;-72
2022/09/06 08:27:37;;;;;;;;;;;;;;;31.27;18.28;101542.59;84243;1338;22582;-70
2022/09/06 08:29:46;;;;;;;1.50;0.50;;;;;;;31.22;17.97;101546.55;84210;1339;22629;-71
2022/09/06 08:31:55;;;;;;;1.10;0.50;;;;;;;31.37;18.42;101539.48;84207;1338;22637;-70
2022/09/06 08:34:02;;;;;;;;;;;;;;;31.75;17.93;101542.81;84047;1339;22740;-70
2022/09/06 08:36:12;;;;;;;2.10;0.60;;;;;;;31.92;17.73;101542.00;84220;1339;22736;-70
2022/09/06 08:38:20;;;;;;;0.40;0.40;;;;;;;32.21;17.50;101534.06;84048;1341;22617;-70
2022/09/06 08:40:29;;;;;;;1.70;0.50;;;;;;;32.34;16.36;101535.32;84214;1338;24322;-71
2022/09/06 08:42:40;;;;;;;1.60;0.60;;;;;;;32.12;16.66;101540.18;84210;1333;24254;-72
2022/09/06 08:44:50;;;;;;;1.30;0.60;;;;;;;32.13;17.16;101533.30;84219;1338;22640;-71
2022/09/06 08:47:01;;;;;;;2.80;0.70;;;;;;;32.36;16.99;101528.13;84223;1338;22542;-70
2022/09/06 08:49:10;;;;;;;0.90;0.70;;;;;;;32.54;16.58;101521.33;84274;1337;25533;-70
2022/09/06 08:51:50;;;;;;;1.80;0.60;;;;;;;32.50;16.30;101518.38;84288;1339;22634;-70
2022/09/06 08:54:04;;;;;;;1.90;0.50;;;;;;;32.57;16.77;101522.27;84288;1338;22633;-73
2022/09/06 08:56:17;;;;;;;8.00;0.90;;;;;;;32.51;15.92;101517.35;84320;1338;22603;-72
2022/09/06 08:58:43;;;;;;;3.00;0.50;;;;;;;32.37;16.41;101513.02;84280;1337;25448;-72
2022/09/06 09:00:57;;;;;;;6.50;0.50;;;;;;;32.54;16.98;101511.02;84272;1337;23933;-70
2022/09/06 09:03:10;;;;;;;4.50;0.50;;;;;;;32.67;16.09;101512.14;84275;1338;22594;-70
2022/09/06 09:05:25;;;;;;;3.80;0.60;;;;;;;32.47;15.98;101510.73;84266;1338;22600;-70
2022/09/06 09:07:45;;;;;;;1.90;0.40;;;;;;;32.32;16.44;101507.70;84281;1337;23975;-71
2022/09/06 09:09:55;;;;;;;0.50;0.50;;;;;;;32.22;16.39;101504.94;84280;1337;22623;-72
2022/09/06 09:12:04;;;;;;;2.10;0.50;;;;;;;32.02;16.54;101503.31;84160;1338;26537;-72
2022/09/06 09:14:18;;;;;;;17.20;3.10;;;;;;;32.05;16.60;101498.33;84257;1337;22642;-70
2022/09/06 09:16:27;;;;;;;4.00;1.10;;;;;;;32.02;16.05;101496.17;84279;1339;22831;-70
2022/09/06 09:18:38;;;;;;;9.60;1.00;;;;;;;31.68;16.31;101497.52;84214;1339;22604;-70
2022/09/06 09:20:47;;;;;;;6.20;0.60;;;;;;;31.57;17.01;101496.02;84266;1337;22610;-70
2022/09/06 09:22:56;;;;;;;0.40;0.40;;;;;;;31.80;16.75;101500.41;84300;1333;22660;-70
2022/09/06 09:25:04;;;;;;;;;;;;;;;31.78;16.37;101496.95;84289;1337;22572;-70
2022/09/06 09:27:13;;;;;;;2.00;0.50;;;;;;;31.70;16.42;101493.45;84320;1339;22588;-70
2022/09/06 09:29:22;;;;;;;1.20;0.40;;;;;;;31.88;16.92;101491.52;84273;1340;22596;-70
2022/09/06 09:31:38;;;;;;;4.80;0.50;;;;;;;32.09;15.99;101493.60;84294;1337;22624;-70
2022/09/06 09:33:46;;;;;;;1.60;0.50;;;;;;;31.78;16.68;101495.51;84279;1336;22630;-70
2022/09/06 09:35:58;;;;;;;0.50;0.40;;;;;;;31.80;16.60;101491.55;84312;1341;22617;-71
2022/09/06 09:38:11;;;;;;;0.40;0.40;;;;;;;31.63;16.78;101485.78;84295;1337;22615;-70
2022/09/06 09:40:34;;;;;;;4.20;0.40;;;;;;;31.37;17.23;101482.05;84298;1338;22727;-70
2022/09/06 09:42:43;;;;;;;3.40;0.60;;;;;;;31.07;17.16;101477.47;84224;1338;22981;-70
2022/09/06 09:44:53;;;;;;;0.70;0.70;;;;;;;30.59;16.89;101476.50;84149;1338;22638;-72
2022/09/06 09:47:02;;;;;;;6.60;1.10;;;;;;;29.68;17.26;101481.16;83802;1338;602256;-71
2022/09/06 09:49:12;;;;;;;0.50;0.50;;;;;;;29.01;17.88;101472.92;84152;1338;22730;-70
2022/09/06 09:51:26;;;;;;;1.00;0.40;;;;;;;28.47;19.13;101476.03;84249;1338;22633;-70
2022/09/06 09:53:38;;;;;;;1.50;0.60;;;;;;;27.95;19.02;101479.89;84239;1337;23978;-70
2022/09/06 09:55:47;;;;;;;3.10;0.50;;;;;;;27.32;19.70;101477.86;84270;1338;25487;-71
2022/09/06 09:57:56;;;;;;;0.80;0.40;;;;;;;26.78;19.89;101471.77;84252;1338;24445;-69
2022/09/06 10:00:11;;;;;;;2.80;0.40;;;;;;;26.32;20.58;101468.50;84194;1338;25974;-70
2022/09/06 10:02:26;;;;;;;1.80;0.50;;;;;;;25.82;20.84;101466.53;84193;1338;22545;-69
2022/09/06 10:04:40;;;;;;;0.70;0.60;;;;;;;25.38;21.42;101466.05;84223;1337;22595;-71
2022/09/06 10:06:49;;;;;;;1.50;0.80;;;;;;;25.02;21.91;101461.15;84297;1338;22655;-70
2022/09/06 10:08:58;;;;;;;1.90;0.80;;;;;;;24.72;22.41;101460.07;84269;1333;23095;-72
2022/09/06 10:11:07;;;;;;;2.50;0.60;;;;;;;24.44;23.06;101459.60;84264;1338;22574;-70
2022/09/06 10:13:21;;;;;;;0.70;0.60;;;;;;;24.26;22.68;101453.81;84193;1339;23990;-70